createdAt,value
2023-11-19T00:00:00.440Z,1.6
2023-11-19T00:01:00.443Z,1.6
2023-11-19T00:02:00.508Z,1.6
2023-11-19T00:03:00.530Z,1.6
2023-11-19T00:04:00.550Z,1.6
2023-11-19T00:05:00.512Z,1.6
2023-11-19T00:06:01.174Z,1.6
2023-11-19T00:07:00.469Z,1.6
2023-11-19T00:08:00.423Z,1.6
2023-11-19T00:09:00.443Z,1.6
2023-11-19T00:10:00.500Z,1.6
2023-11-19T00:11:00.459Z,1.6
2023-11-19T00:12:00.463Z,1.6
2023-11-19T00:13:00.439Z,1.6
2023-11-19T00:14:00.450Z,1.6
2023-11-19T00:15:00.480Z,1.6
2023-11-19T00:16:00.462Z,1.6
2023-11-19T00:17:00.840Z,1.6
2023-11-19T00:18:02.133Z,1.6
2023-11-19T00:19:00.507Z,1.6
2023-11-19T00:20:00.430Z,1.6
2023-11-19T00:21:00.402Z,1.5
2023-11-19T00:22:00.476Z,1.5
2023-11-19T00:23:00.397Z,1.5
2023-11-19T00:24:00.435Z,1.5
2023-11-19T00:25:00.430Z,1.5
2023-11-19T00:26:00.462Z,1.5
2023-11-19T00:27:00.419Z,1.5
2023-11-19T00:28:00.444Z,1.5
2023-11-19T00:29:00.410Z,1.4
2023-11-19T00:30:00.430Z,1.4
2023-11-19T00:31:00.548Z,1.4
2023-11-19T00:32:00.574Z,1.4
2023-11-19T00:33:00.457Z,1.4
2023-11-19T00:34:00.493Z,1.4
2023-11-19T00:35:00.700Z,1.4
2023-11-19T00:36:00.399Z,1.3
2023-11-19T00:37:00.433Z,1.3
2023-11-19T00:38:00.465Z,1.3
2023-11-19T00:39:00.404Z,1.3
2023-11-19T00:40:00.548Z,1.3
2023-11-19T00:41:00.411Z,1.3
2023-11-19T00:42:00.406Z,1.2
2023-11-19T00:43:01.372Z,1.2
2023-11-19T00:44:00.492Z,1.2
2023-11-19T00:45:00.611Z,1.2
2023-11-19T00:46:00.434Z,1.2
2023-11-19T00:47:00.511Z,1.1
2023-11-19T00:48:00.447Z,1.1
2023-11-19T00:49:00.421Z,1.1
2023-11-19T00:50:00.465Z,1.1
2023-11-19T00:51:00.416Z,1.1
2023-11-19T00:52:00.534Z,1.1
2023-11-19T00:53:00.418Z,1.1
2023-11-19T00:54:00.476Z,1.1
2023-11-19T00:55:00.491Z,1.1
2023-11-19T00:56:00.511Z,1.0
2023-11-19T00:57:00.421Z,1.0
2023-11-19T00:58:00.544Z,1.0
2023-11-19T00:59:00.435Z,1.0
2023-11-19T01:00:00.399Z,1.0
2023-11-19T01:01:00.422Z,1.0
2023-11-19T01:02:00.479Z,1.0
2023-11-19T01:03:00.719Z,1.0
2023-11-19T01:04:00.512Z,1.0
2023-11-19T01:05:00.511Z,1.0
2023-11-19T01:06:01.214Z,0.9
2023-11-19T01:07:02.585Z,0.9
2023-11-19T01:08:00.400Z,0.9
2023-11-19T01:09:00.449Z,0.9
2023-11-19T01:10:00.578Z,0.9
2023-11-19T01:11:00.401Z,0.9
2023-11-19T01:12:00.931Z,0.9
2023-11-19T01:13:00.522Z,0.9
2023-11-19T01:14:01.209Z,0.9
2023-11-19T01:15:00.411Z,0.9
2023-11-19T01:16:00.439Z,0.9
2023-11-19T01:17:01.308Z,0.9
2023-11-19T01:18:00.453Z,0.9
2023-11-19T01:19:11.915Z,0.8
2023-11-19T01:20:00.541Z,0.8
2023-11-19T01:21:00.450Z,0.8
2023-11-19T01:22:01.021Z,0.8
2023-11-19T01:23:00.503Z,0.8
2023-11-19T01:24:00.402Z,0.8
2023-11-19T01:25:00.435Z,0.8
2023-11-19T01:26:00.673Z,0.8
2023-11-19T01:27:00.395Z,0.7
2023-11-19T01:28:00.494Z,0.7
2023-11-19T01:29:00.429Z,0.7
2023-11-19T01:30:01.161Z,0.7
2023-11-19T01:31:00.448Z,0.7
2023-11-19T01:32:00.433Z,0.7
2023-11-19T01:33:00.441Z,0.7
2023-11-19T01:34:00.581Z,0.7
2023-11-19T01:35:00.610Z,0.7
2023-11-19T01:36:00.431Z,0.7
2023-11-19T01:37:00.438Z,0.7
2023-11-19T01:38:00.401Z,0.7
2023-11-19T01:39:00.478Z,0.6
2023-11-19T01:40:00.436Z,0.6
2023-11-19T01:41:00.785Z,0.6
2023-11-19T01:42:00.460Z,0.6
2023-11-19T01:43:00.460Z,0.6
2023-11-19T01:44:00.417Z,0.6
2023-11-19T01:45:01.511Z,0.6
2023-11-19T01:46:01.450Z,0.6
2023-11-19T01:47:02.122Z,0.6
2023-11-19T01:48:02.685Z,0.6
2023-11-19T01:49:01.530Z,0.6
2023-11-19T01:50:01.752Z,0.6
2023-11-19T01:51:03.455Z,0.6
2023-11-19T01:52:00.540Z,0.6
2023-11-19T01:53:00.665Z,0.6
2023-11-19T01:54:01.443Z,0.6
2023-11-19T01:55:01.289Z,0.6
2023-11-19T01:56:01.073Z,0.7
2023-11-19T01:57:00.440Z,0.7
2023-11-19T01:58:01.682Z,0.7
2023-11-19T01:59:00.857Z,0.7
2023-11-19T02:00:00.636Z,0.7
2023-11-19T02:01:00.565Z,0.7
2023-11-19T02:02:01.620Z,0.7
2023-11-19T02:03:00.876Z,0.7
2023-11-19T02:04:01.903Z,0.7
2023-11-19T02:05:00.533Z,0.7
2023-11-19T02:06:00.697Z,0.7
2023-11-19T02:07:00.753Z,0.7
2023-11-19T02:08:00.655Z,0.7
2023-11-19T02:09:00.417Z,0.7
2023-11-19T02:10:00.698Z,0.7
2023-11-19T02:11:00.404Z,0.7
2023-11-19T02:12:00.515Z,0.7
2023-11-19T02:14:00.933Z,0.7
2023-11-19T02:15:00.655Z,0.7
2023-11-19T02:16:00.470Z,0.7
2023-11-19T02:17:00.444Z,0.7
2023-11-19T02:18:31.064Z,0.7
2023-11-19T02:19:00.472Z,0.7
2023-11-19T02:20:00.792Z,0.7
2023-11-19T02:21:00.540Z,0.7
2023-11-19T02:22:00.451Z,0.7
2023-11-19T02:23:00.469Z,0.7
2023-11-19T02:24:09.300Z,0.7
2023-11-19T02:25:04.341Z,0.7
2023-11-19T02:26:35.810Z,0.7
2023-11-19T02:27:13.613Z,0.7
2023-11-19T02:28:02.082Z,0.7
2023-11-19T02:29:00.448Z,0.6
2023-11-19T02:30:00.890Z,0.6
2023-11-19T02:31:00.631Z,0.6
2023-11-19T02:32:00.660Z,0.6
2023-11-19T02:33:00.472Z,0.6
2023-11-19T02:34:00.707Z,0.6
2023-11-19T02:36:00.413Z,0.6
2023-11-19T02:37:00.453Z,0.6
2023-11-19T02:38:00.499Z,0.6
2023-11-19T02:39:00.408Z,0.6
2023-11-19T02:40:00.570Z,0.6
2023-11-19T02:41:03.633Z,0.6
2023-11-19T02:42:00.410Z,0.6
2023-11-19T02:43:00.565Z,0.6
2023-11-19T02:44:00.399Z,0.6
2023-11-19T02:45:00.468Z,0.6
2023-11-19T02:46:02.036Z,0.6
2023-11-19T02:47:00.440Z,0.6
2023-11-19T02:48:00.447Z,0.6
2023-11-19T02:49:00.566Z,0.6
2023-11-19T02:50:01.406Z,0.6
2023-11-19T02:51:00.516Z,0.6
2023-11-19T02:52:00.521Z,0.6
2023-11-19T02:53:00.502Z,0.6
2023-11-19T02:54:00.653Z,0.6
2023-11-19T02:55:00.554Z,0.6
2023-11-19T02:56:00.467Z,0.6
2023-11-19T02:57:01.193Z,0.6
2023-11-19T02:58:00.737Z,0.6
2023-11-19T02:59:00.595Z,0.6
2023-11-19T03:00:00.496Z,0.6
2023-11-19T03:01:00.578Z,0.6
2023-11-19T03:02:00.506Z,0.6
2023-11-19T03:03:00.736Z,0.6
2023-11-19T03:04:01.101Z,0.6
2023-11-19T03:05:00.397Z,0.6
2023-11-19T03:06:00.430Z,0.6
2023-11-19T03:07:00.488Z,0.6
2023-11-19T03:08:00.425Z,0.6
2023-11-19T03:09:00.410Z,0.6
2023-11-19T03:10:00.549Z,0.6
2023-11-19T03:11:00.604Z,0.6
2023-11-19T03:12:00.776Z,0.5
2023-11-19T03:13:00.519Z,0.6
2023-11-19T03:14:00.409Z,0.5
2023-11-19T03:15:00.432Z,0.5
2023-11-19T03:16:00.582Z,0.5
2023-11-19T03:17:00.483Z,0.5
2023-11-19T03:18:00.445Z,0.5
2023-11-19T03:19:00.415Z,0.5
2023-11-19T03:20:01.095Z,0.5
2023-11-19T03:21:00.422Z,0.5
2023-11-19T03:22:01.421Z,0.5
2023-11-19T03:23:00.392Z,0.5
2023-11-19T03:24:00.408Z,0.5
2023-11-19T03:25:00.465Z,0.5
2023-11-19T03:26:00.559Z,0.5
2023-11-19T03:27:00.397Z,0.5
2023-11-19T03:28:00.890Z,0.5
2023-11-19T03:29:00.433Z,0.5
2023-11-19T03:30:00.617Z,0.5
2023-11-19T03:31:00.548Z,0.5
2023-11-19T03:32:00.396Z,0.5
2023-11-19T03:33:00.417Z,0.5
2023-11-19T03:34:00.544Z,0.5
2023-11-19T03:35:00.539Z,0.5
2023-11-19T03:36:00.466Z,0.5
2023-11-19T03:37:00.423Z,0.5
2023-11-19T03:38:00.426Z,0.5
2023-11-19T03:39:00.656Z,0.5
2023-11-19T03:40:02.542Z,0.5
2023-11-19T03:41:00.417Z,0.5
2023-11-19T03:42:00.399Z,0.5
2023-11-19T03:43:00.536Z,0.5
2023-11-19T03:44:00.399Z,0.5
2023-11-19T03:45:00.547Z,0.5
2023-11-19T03:46:00.504Z,0.5
2023-11-19T03:47:00.500Z,0.5
2023-11-19T03:48:00.461Z,0.5
2023-11-19T03:49:00.551Z,0.5
2023-11-19T03:50:00.882Z,0.5
2023-11-19T03:51:00.457Z,0.5
2023-11-19T03:52:00.441Z,0.5
2023-11-19T03:53:00.465Z,0.5
2023-11-19T03:54:00.544Z,0.5
2023-11-19T03:55:00.541Z,0.5
2023-11-19T03:56:00.431Z,0.5
2023-11-19T03:57:00.394Z,0.5
2023-11-19T03:58:00.578Z,0.5
2023-11-19T03:59:00.468Z,0.5
2023-11-19T04:00:00.481Z,0.5
2023-11-19T04:01:00.417Z,0.5
2023-11-19T04:02:00.467Z,0.5
2023-11-19T04:03:00.552Z,0.5
2023-11-19T04:04:00.596Z,0.5
2023-11-19T04:05:00.489Z,0.5
2023-11-19T04:06:00.409Z,0.5
2023-11-19T04:07:01.560Z,0.6
2023-11-19T04:08:00.403Z,0.6
2023-11-19T04:09:00.401Z,0.6
2023-11-19T04:10:00.849Z,0.6
2023-11-19T04:11:00.406Z,0.6
2023-11-19T04:12:00.762Z,0.6
2023-11-19T04:13:00.506Z,0.6
2023-11-19T04:14:00.412Z,0.6
2023-11-19T04:15:01.688Z,0.6
2023-11-19T04:16:00.715Z,0.6
2023-11-19T04:17:00.424Z,0.6
2023-11-19T04:18:00.421Z,0.5
2023-11-19T04:19:00.473Z,0.5
2023-11-19T04:20:00.490Z,0.5
2023-11-19T04:21:00.418Z,0.5
2023-11-19T04:22:00.479Z,0.5
2023-11-19T04:23:00.389Z,0.5
2023-11-19T04:24:00.698Z,0.5
2023-11-19T04:25:00.673Z,0.5
2023-11-19T04:27:00.472Z,0.5
2023-11-19T04:28:00.466Z,0.5
2023-11-19T04:29:00.446Z,0.5
2023-11-19T04:30:00.446Z,0.5
2023-11-19T04:31:00.467Z,0.5
2023-11-19T04:32:00.416Z,0.5
2023-11-19T04:33:00.421Z,0.6
2023-11-19T04:34:00.419Z,0.6
2023-11-19T04:35:00.474Z,0.6
2023-11-19T04:36:00.504Z,0.6
2023-11-19T04:37:12.965Z,0.6
2023-11-19T04:38:00.445Z,0.6
2023-11-19T04:39:01.286Z,0.6
2023-11-19T04:40:00.584Z,0.6
2023-11-19T04:41:00.511Z,0.6
2023-11-19T04:42:00.444Z,0.6
2023-11-19T04:43:00.427Z,0.6
2023-11-19T04:44:00.406Z,0.6
2023-11-19T04:45:00.474Z,0.6
2023-11-19T04:46:03.403Z,0.6
2023-11-19T04:47:00.561Z,0.6
2023-11-19T04:48:00.476Z,0.6
2023-11-19T04:49:00.472Z,0.6
2023-11-19T04:50:00.414Z,0.7
2023-11-19T04:51:00.446Z,0.7
2023-11-19T04:52:00.477Z,0.7
2023-11-19T04:53:01.260Z,0.7
2023-11-19T04:54:00.426Z,0.7
2023-11-19T04:55:00.454Z,0.7
2023-11-19T04:56:00.660Z,0.7
2023-11-19T04:57:00.462Z,0.7
2023-11-19T04:58:00.448Z,0.7
2023-11-19T04:59:00.513Z,0.7
2023-11-19T05:00:00.405Z,0.7
2023-11-19T05:01:00.421Z,0.8
2023-11-19T05:02:00.412Z,0.8
2023-11-19T05:03:00.583Z,0.8
2023-11-19T05:04:01.020Z,0.8
2023-11-19T05:05:01.165Z,0.8
2023-11-19T05:06:00.423Z,0.8
2023-11-19T05:07:01.175Z,0.8
2023-11-19T05:08:00.464Z,0.8
2023-11-19T05:09:02.404Z,0.8
2023-11-19T05:10:00.532Z,0.9
2023-11-19T05:11:00.390Z,0.9
2023-11-19T05:12:00.482Z,0.8
2023-11-19T05:13:00.497Z,0.8
2023-11-19T05:14:03.133Z,0.9
2023-11-19T05:15:00.467Z,0.9
2023-11-19T05:16:00.493Z,0.9
2023-11-19T05:17:00.435Z,0.9
2023-11-19T05:18:00.466Z,0.9
2023-11-19T05:19:00.889Z,0.9
2023-11-19T05:20:00.490Z,0.9
2023-11-19T05:21:00.401Z,0.9
2023-11-19T05:22:00.454Z,0.9
2023-11-19T05:23:00.518Z,0.9
2023-11-19T05:24:00.409Z,0.9
2023-11-19T05:25:00.430Z,0.9
2023-11-19T05:26:02.194Z,0.9
2023-11-19T05:27:00.411Z,0.9
2023-11-19T05:28:00.446Z,0.9
2023-11-19T05:29:00.486Z,0.9
2023-11-19T05:30:00.494Z,0.9
2023-11-19T05:31:00.435Z,0.9
2023-11-19T05:32:00.479Z,0.9
2023-11-19T05:33:00.441Z,0.9
2023-11-19T05:34:00.571Z,0.9
2023-11-19T05:35:00.496Z,0.9
2023-11-19T05:36:00.549Z,0.9
2023-11-19T05:37:00.623Z,0.9
2023-11-19T05:38:00.410Z,0.9
2023-11-19T05:39:00.516Z,0.9
2023-11-19T05:40:00.624Z,0.9
2023-11-19T05:41:00.443Z,0.9
2023-11-19T05:42:00.412Z,0.9
2023-11-19T05:43:00.509Z,0.9
2023-11-19T05:44:00.398Z,0.9
2023-11-19T05:45:00.395Z,1.0
2023-11-19T05:46:00.644Z,1.0
2023-11-19T05:47:00.535Z,1.0
2023-11-19T05:48:00.591Z,1.0
2023-11-19T05:49:00.477Z,1.0
2023-11-19T05:50:00.417Z,1.0
2023-11-19T05:51:00.456Z,1.0
2023-11-19T05:52:00.686Z,1.0
2023-11-19T05:53:00.416Z,1.1
2023-11-19T05:54:00.426Z,1.1
2023-11-19T05:55:01.043Z,1.1
2023-11-19T05:56:00.464Z,1.1
2023-11-19T05:57:00.428Z,1.1
2023-11-19T05:58:00.424Z,1.1
2023-11-19T05:59:00.569Z,1.1
2023-11-19T06:00:00.417Z,1.1
2023-11-19T06:01:00.469Z,1.1
2023-11-19T06:02:00.410Z,1.1
2023-11-19T06:03:00.508Z,1.2
2023-11-19T06:04:00.628Z,1.2
2023-11-19T06:05:00.870Z,1.2
2023-11-19T06:06:01.050Z,1.2
2023-11-19T06:07:00.481Z,1.2
2023-11-19T06:08:00.435Z,1.2
2023-11-19T06:09:13.098Z,1.2
2023-11-19T06:10:00.442Z,1.2
2023-11-19T06:11:00.548Z,1.3
2023-11-19T06:12:00.456Z,1.3
2023-11-19T06:13:00.501Z,1.3
2023-11-19T06:14:00.423Z,1.3
2023-11-19T06:15:00.400Z,1.3
2023-11-19T06:16:00.485Z,1.3
2023-11-19T06:17:00.556Z,1.3
2023-11-19T06:18:00.613Z,1.3
2023-11-19T06:19:00.585Z,1.3
2023-11-19T06:20:00.470Z,1.3
2023-11-19T06:21:00.407Z,1.3
2023-11-19T06:22:00.423Z,1.3
2023-11-19T06:23:00.527Z,1.3
2023-11-19T06:24:00.482Z,1.3
2023-11-19T06:25:00.485Z,1.3
2023-11-19T06:26:00.473Z,1.3
2023-11-19T06:27:00.418Z,1.4
2023-11-19T06:28:00.633Z,1.3
2023-11-19T06:29:00.556Z,1.3
2023-11-19T06:30:01.033Z,1.3
2023-11-19T06:31:00.479Z,1.3
2023-11-19T06:32:00.394Z,1.3
2023-11-19T06:33:00.504Z,1.3
2023-11-19T06:34:00.603Z,1.3
2023-11-19T06:35:00.464Z,1.3
2023-11-19T06:36:00.444Z,1.3
2023-11-19T06:37:00.562Z,1.3
2023-11-19T06:38:00.432Z,1.3
2023-11-19T06:39:00.416Z,1.4
2023-11-19T06:40:00.446Z,1.4
2023-11-19T06:41:00.536Z,1.4
2023-11-19T06:42:00.413Z,1.4
2023-11-19T06:43:00.856Z,1.4
2023-11-19T06:44:00.442Z,1.4
2023-11-19T06:45:01.213Z,1.4
2023-11-19T06:46:00.659Z,1.4
2023-11-19T06:47:00.452Z,1.4
2023-11-19T06:48:01.806Z,1.5
2023-11-19T06:49:00.431Z,1.5
2023-11-19T06:50:00.407Z,1.5
2023-11-19T06:51:00.654Z,1.5
2023-11-19T06:52:00.410Z,1.5
2023-11-19T06:53:00.499Z,1.6
2023-11-19T06:54:00.737Z,1.6
2023-11-19T06:56:00.406Z,1.6
2023-11-19T06:57:00.434Z,1.6
2023-11-19T06:58:00.467Z,1.7
2023-11-19T06:59:00.442Z,1.7
2023-11-19T07:00:00.410Z,1.7
2023-11-19T07:01:00.408Z,1.7
2023-11-19T07:02:00.517Z,1.7
2023-11-19T07:03:00.479Z,1.8
2023-11-19T07:04:00.456Z,1.8
2023-11-19T07:05:00.445Z,1.8
2023-11-19T07:06:00.477Z,1.8
2023-11-19T07:07:00.412Z,1.8
2023-11-19T07:08:00.427Z,1.8
2023-11-19T07:09:01.462Z,1.8
2023-11-19T07:10:00.485Z,1.9
2023-11-19T07:11:00.472Z,1.9
2023-11-19T07:12:00.438Z,1.9
2023-11-19T07:13:00.400Z,1.9
2023-11-19T07:14:00.427Z,1.9
2023-11-19T07:15:00.411Z,1.9
2023-11-19T07:16:00.460Z,1.9
2023-11-19T07:17:00.553Z,1.9
2023-11-19T07:18:03.556Z,1.9
2023-11-19T07:19:01.318Z,2.0
2023-11-19T07:20:00.850Z,2.0
2023-11-19T07:21:00.405Z,2.0
2023-11-19T07:22:00.434Z,2.0
2023-11-19T07:23:00.402Z,2.0
2023-11-19T07:24:00.719Z,2.0
2023-11-19T07:25:00.513Z,2.0
2023-11-19T07:26:00.414Z,2.0
2023-11-19T07:27:00.566Z,2.0
2023-11-19T07:28:00.486Z,2.1
2023-11-19T07:29:00.407Z,2.1
2023-11-19T07:30:00.487Z,2.1
2023-11-19T07:31:00.512Z,2.1
2023-11-19T07:32:00.549Z,2.1
2023-11-19T07:33:00.456Z,2.1
2023-11-19T07:34:00.489Z,2.1
2023-11-19T07:35:00.576Z,2.2
2023-11-19T07:36:00.395Z,2.2
2023-11-19T07:37:00.457Z,2.2
2023-11-19T07:38:00.436Z,2.2
2023-11-19T07:39:00.417Z,2.2
2023-11-19T07:40:00.496Z,2.2
2023-11-19T07:41:00.473Z,2.2
2023-11-19T07:42:00.845Z,2.2
2023-11-19T07:43:00.409Z,2.2
2023-11-19T07:44:00.687Z,2.2
2023-11-19T07:45:00.465Z,2.2
2023-11-19T07:46:00.449Z,2.2
2023-11-19T07:47:00.410Z,2.1
2023-11-19T07:48:00.472Z,2.1
2023-11-19T07:49:00.396Z,2.1
2023-11-19T07:50:00.440Z,2.1
2023-11-19T07:51:00.404Z,2.2
2023-11-19T07:52:00.431Z,2.1
2023-11-19T07:53:00.437Z,2.1
2023-11-19T07:54:00.428Z,2.1
2023-11-19T07:55:00.460Z,2.1
2023-11-19T07:56:00.826Z,2.1
2023-11-19T07:57:00.506Z,2.1
2023-11-19T07:58:00.427Z,2.1
2023-11-19T07:59:00.404Z,2.1
2023-11-19T08:00:00.644Z,2.1
2023-11-19T08:01:00.777Z,2.1
2023-11-19T08:02:00.404Z,2.1
2023-11-19T08:03:00.540Z,2.1
2023-11-19T08:04:00.809Z,2.0
2023-11-19T08:05:00.552Z,2.1
2023-11-19T08:06:00.589Z,2.0
2023-11-19T08:07:00.400Z,2.0
2023-11-19T08:08:00.416Z,2.0
2023-11-19T08:09:00.414Z,2.0
2023-11-19T08:10:00.396Z,2.0
2023-11-19T08:11:00.621Z,2.0
2023-11-19T08:12:00.414Z,2.0
2023-11-19T08:13:00.459Z,2.0
2023-11-19T08:14:00.563Z,2.0
2023-11-19T08:15:00.698Z,2.0
2023-11-19T08:16:00.485Z,2.0
2023-11-19T08:17:00.431Z,2.0
2023-11-19T08:18:00.516Z,2.0
2023-11-19T08:19:00.449Z,2.0
2023-11-19T08:20:00.402Z,2.0
2023-11-19T08:21:00.391Z,2.0
2023-11-19T08:22:00.485Z,2.0
2023-11-19T08:23:02.882Z,2.0
2023-11-19T08:24:00.426Z,2.0
2023-11-19T08:25:00.488Z,2.0
2023-11-19T08:26:00.845Z,1.9
2023-11-19T08:27:03.606Z,1.9
2023-11-19T08:28:00.715Z,1.9
2023-11-19T08:29:00.454Z,1.9
2023-11-19T08:30:00.418Z,1.8
2023-11-19T08:31:01.439Z,1.9
2023-11-19T08:32:03.215Z,1.8
2023-11-19T08:33:00.518Z,1.8
2023-11-19T08:34:00.439Z,1.8
2023-11-19T08:35:00.415Z,1.8
2023-11-19T08:36:00.444Z,1.8
2023-11-19T08:37:00.441Z,1.8
2023-11-19T08:38:00.395Z,1.7
2023-11-19T08:39:00.849Z,1.7
2023-11-19T08:40:00.449Z,1.7
2023-11-19T08:41:00.411Z,1.6
2023-11-19T08:42:00.445Z,1.6
2023-11-19T08:43:00.510Z,1.5
2023-11-19T08:44:00.438Z,1.5
2023-11-19T08:45:00.745Z,1.5
2023-11-19T08:46:00.433Z,1.4
2023-11-19T08:47:00.416Z,1.4
2023-11-19T08:48:00.650Z,1.4
2023-11-19T08:49:00.409Z,1.4
2023-11-19T08:51:00.433Z,1.3
2023-11-19T08:52:00.408Z,1.3
2023-11-19T08:53:00.435Z,1.3
2023-11-19T08:54:00.394Z,1.3
2023-11-19T08:55:00.400Z,1.3
2023-11-19T08:56:00.452Z,1.3
2023-11-19T08:57:00.456Z,1.3
2023-11-19T08:58:00.462Z,1.3
2023-11-19T08:59:00.449Z,1.3
2023-11-19T09:00:00.551Z,1.3
2023-11-19T09:01:00.474Z,1.3
2023-11-19T09:02:00.426Z,1.3
2023-11-19T09:03:00.718Z,1.3
2023-11-19T09:04:00.603Z,1.3
2023-11-19T09:05:00.674Z,1.3
2023-11-19T09:06:00.814Z,1.3
2023-11-19T09:07:00.406Z,1.3
2023-11-19T09:08:00.488Z,1.3
2023-11-19T09:09:00.465Z,1.3
2023-11-19T09:10:00.484Z,1.3
2023-11-19T09:11:00.416Z,1.3
2023-11-19T09:12:00.413Z,1.4
2023-11-19T09:13:00.409Z,1.3
2023-11-19T09:14:00.643Z,1.4
2023-11-19T09:15:00.548Z,1.4
2023-11-19T09:16:00.546Z,1.4
2023-11-19T09:17:00.504Z,1.4
2023-11-19T09:18:00.600Z,1.4
2023-11-19T09:19:00.476Z,1.5
2023-11-19T09:20:00.432Z,1.4
2023-11-19T09:21:00.457Z,1.4
2023-11-19T09:22:00.441Z,1.5
2023-11-19T09:23:00.421Z,1.5
2023-11-19T09:24:00.421Z,1.5
2023-11-19T09:25:00.483Z,1.5
2023-11-19T09:26:00.393Z,1.5
2023-11-19T09:27:00.445Z,1.5
2023-11-19T09:28:00.398Z,1.5
2023-11-19T09:29:00.405Z,1.6
2023-11-19T09:30:00.527Z,1.6
2023-11-19T09:31:00.449Z,1.6
2023-11-19T09:32:00.457Z,1.6
2023-11-19T09:33:00.607Z,1.6
2023-11-19T09:34:01.201Z,1.6
2023-11-19T09:35:00.469Z,1.6
2023-11-19T09:36:00.425Z,1.7
2023-11-19T09:37:00.443Z,1.7
2023-11-19T09:38:01.864Z,1.7
2023-11-19T09:39:00.432Z,1.7
2023-11-19T09:40:00.453Z,1.7
2023-11-19T09:41:00.423Z,1.8
2023-11-19T09:42:00.438Z,1.8
2023-11-19T09:43:01.044Z,1.8
2023-11-19T09:44:00.618Z,1.8
2023-11-19T09:45:06.792Z,1.8
2023-11-19T09:46:05.440Z,1.9
2023-11-19T09:47:01.107Z,1.9
2023-11-19T09:48:01.258Z,1.9
2023-11-19T09:49:02.620Z,1.9
2023-11-19T09:50:00.477Z,1.9
2023-11-19T09:51:01.437Z,1.9
2023-11-19T09:52:00.904Z,1.9
2023-11-19T09:53:00.437Z,1.9
2023-11-19T09:54:00.494Z,2.0
2023-11-19T09:55:00.479Z,2.0
2023-11-19T09:56:02.219Z,2.0
2023-11-19T09:57:01.954Z,2.0
2023-11-19T09:58:01.447Z,2.0
2023-11-19T09:59:00.471Z,2.0
2023-11-19T10:00:01.536Z,2.0
2023-11-19T10:01:25.874Z,2.1
2023-11-19T10:02:00.593Z,2.1
2023-11-19T10:03:00.974Z,2.1
2023-11-19T10:04:01.438Z,2.1
2023-11-19T10:05:06.193Z,2.1
2023-11-19T10:06:02.215Z,2.1
2023-11-19T10:07:00.490Z,2.1
2023-11-19T10:08:01.731Z,2.2
2023-11-19T10:09:00.418Z,2.2
2023-11-19T10:10:00.998Z,2.2
2023-11-19T10:11:00.523Z,2.2
2023-11-19T10:12:00.422Z,2.2
2023-11-19T10:13:00.792Z,2.2
2023-11-19T10:14:00.476Z,2.2
2023-11-19T10:15:00.540Z,2.3
2023-11-19T10:16:07.209Z,2.3
2023-11-19T10:17:01.354Z,2.3
2023-11-19T10:18:00.520Z,2.3
2023-11-19T10:19:00.548Z,2.3
2023-11-19T10:20:00.901Z,2.4
2023-11-19T10:21:00.420Z,2.4
2023-11-19T10:22:03.926Z,2.4
2023-11-19T10:23:00.424Z,2.4
2023-11-19T10:24:00.412Z,2.5
2023-11-19T10:25:00.662Z,2.5
2023-11-19T10:26:04.200Z,2.6
2023-11-19T10:27:00.699Z,2.6
2023-11-19T10:28:00.557Z,2.7
2023-11-19T10:29:00.413Z,2.7
2023-11-19T10:30:00.442Z,2.8
2023-11-19T10:31:00.646Z,2.8
2023-11-19T10:32:23.901Z,2.8
2023-11-19T10:33:07.119Z,2.9
2023-11-19T10:34:00.549Z,3.0
2023-11-19T10:35:07.919Z,3.0
2023-11-19T10:36:03.057Z,3.0
2023-11-19T10:37:00.400Z,3.0
2023-11-19T10:38:01.262Z,3.0
2023-11-19T10:39:00.466Z,3.0
2023-11-19T10:40:00.603Z,3.0
2023-11-19T10:41:00.508Z,3.0
2023-11-19T10:42:15.223Z,3.0
2023-11-19T10:43:04.091Z,3.0
2023-11-19T10:44:00.697Z,3.0
2023-11-19T10:45:00.433Z,3.0
2023-11-19T10:46:15.897Z,3.0
2023-11-19T10:47:00.439Z,3.0
2023-11-19T10:48:02.395Z,3.0
2023-11-19T10:49:00.490Z,3.0
2023-11-19T10:50:00.529Z,3.1
2023-11-19T10:51:04.812Z,3.1
2023-11-19T10:52:01.221Z,3.1
2023-11-19T10:53:00.971Z,3.2
2023-11-19T10:54:03.740Z,3.2
2023-11-19T10:55:02.430Z,3.2
2023-11-19T10:56:03.788Z,3.2
2023-11-19T10:57:02.145Z,3.2
2023-11-19T10:58:04.007Z,3.2
2023-11-19T10:59:01.400Z,3.2
2023-11-19T11:00:01.766Z,3.2
2023-11-19T11:01:02.303Z,3.2
2023-11-19T11:02:05.325Z,3.2
2023-11-19T11:03:03.551Z,3.2
2023-11-19T11:04:02.353Z,3.2
2023-11-19T11:05:01.225Z,3.2
2023-11-19T11:06:03.716Z,3.2
2023-11-19T11:07:01.447Z,3.2
2023-11-19T11:08:01.061Z,3.2
2023-11-19T11:09:00.659Z,3.2
2023-11-19T11:10:01.841Z,3.2
2023-11-19T11:11:02.010Z,3.2
2023-11-19T11:12:00.937Z,3.2
2023-11-19T11:13:03.281Z,3.2
2023-11-19T11:14:02.038Z,3.2
2023-11-19T11:15:01.848Z,3.2
2023-11-19T11:16:01.664Z,3.2
2023-11-19T11:17:02.564Z,3.2
2023-11-19T11:18:01.980Z,3.2
2023-11-19T11:19:01.199Z,3.2
2023-11-19T11:20:00.981Z,3.2
2023-11-19T11:21:06.355Z,3.2
2023-11-19T11:22:02.734Z,3.2
2023-11-19T11:23:30.626Z,3.2
2023-11-19T11:25:01.991Z,3.2
2023-11-19T11:26:16.532Z,3.2
2023-11-19T11:27:40.205Z,3.2
2023-11-19T11:28:11.429Z,3.2
2023-11-19T11:29:04.505Z,3.2
2023-11-19T11:30:19.999Z,3.2
2023-11-19T11:31:12.093Z,3.2
2023-11-19T11:32:07.114Z,3.2
2023-11-19T11:33:32.130Z,3.2
2023-11-19T11:35:24.426Z,3.2
2023-11-19T11:36:19.034Z,3.2
2023-11-19T11:37:10.630Z,3.2
2023-11-19T11:38:04.006Z,3.2
2023-11-19T11:39:01.936Z,3.2
2023-11-19T11:40:02.292Z,3.2
2023-11-19T11:41:31.076Z,3.2
2023-11-19T11:42:32.827Z,3.2
2023-11-19T11:43:00.507Z,3.2
2023-11-19T11:44:00.451Z,3.2
2023-11-19T11:45:05.302Z,3.3
2023-11-19T11:46:00.491Z,3.3
2023-11-19T11:47:00.436Z,3.3
2023-11-19T11:48:06.687Z,3.2
2023-11-19T11:49:04.468Z,3.3
2023-11-19T11:50:07.901Z,3.3
2023-11-19T11:51:00.474Z,3.3
2023-11-19T11:52:00.917Z,3.3
2023-11-19T11:53:00.452Z,3.3
2023-11-19T11:54:00.411Z,3.3
2023-11-19T11:55:08.138Z,3.3
2023-11-19T11:56:00.740Z,3.4
2023-11-19T11:58:00.720Z,3.4
2023-11-19T11:59:00.416Z,3.4
2023-11-19T12:00:02.391Z,3.4
2023-11-19T12:01:02.115Z,3.4
2023-11-19T12:02:00.526Z,3.4
2023-11-19T12:03:01.307Z,3.4
2023-11-19T12:04:00.586Z,3.4
2023-11-19T12:05:00.697Z,3.4
2023-11-19T12:06:00.595Z,3.4
2023-11-19T12:07:04.732Z,3.5
2023-11-19T12:08:02.681Z,3.5
2023-11-19T12:09:00.468Z,3.5
2023-11-19T12:10:09.460Z,3.5
2023-11-19T12:11:00.813Z,3.4
2023-11-19T12:12:31.149Z,3.4
2023-11-19T12:13:01.448Z,3.4
2023-11-19T12:14:00.426Z,3.5
2023-11-19T12:15:00.644Z,3.5
2023-11-19T12:16:00.520Z,3.5
2023-11-19T12:17:36.240Z,3.6
2023-11-19T12:18:00.453Z,3.6
2023-11-19T12:19:03.741Z,3.6
2023-11-19T12:20:01.494Z,3.6
2023-11-19T12:21:01.207Z,3.7
2023-11-19T12:22:00.611Z,3.7
2023-11-19T12:23:05.948Z,3.7
2023-11-19T12:24:01.755Z,3.7
2023-11-19T12:25:02.003Z,3.7
2023-11-19T12:26:00.458Z,3.7
2023-11-19T12:27:00.499Z,3.7
2023-11-19T12:28:00.734Z,3.8
2023-11-19T12:29:01.182Z,3.8
2023-11-19T12:30:00.853Z,3.8
2023-11-19T12:31:08.696Z,3.9
2023-11-19T12:32:14.862Z,3.9
2023-11-19T12:33:07.499Z,4.0
2023-11-19T12:34:00.451Z,4.0
2023-11-19T12:35:00.475Z,4.0
2023-11-19T12:36:00.519Z,4.0
2023-11-19T12:37:03.322Z,4.0
2023-11-19T12:38:00.393Z,4.0
2023-11-19T12:39:00.834Z,4.0
2023-11-19T12:40:00.671Z,4.0
2023-11-19T12:41:09.168Z,4.0
2023-11-19T12:42:00.461Z,4.0
2023-11-19T12:43:00.479Z,4.1
2023-11-19T12:44:08.976Z,4.1
2023-11-19T12:45:00.409Z,4.1
2023-11-19T12:46:01.388Z,4.1
2023-11-19T12:47:02.463Z,4.1
2023-11-19T12:48:08.510Z,4.1
2023-11-19T12:49:00.539Z,4.2
2023-11-19T12:50:00.595Z,4.2
2023-11-19T12:51:00.431Z,4.2
2023-11-19T12:52:00.500Z,4.2
2023-11-19T12:53:00.401Z,4.3
2023-11-19T12:54:00.476Z,4.3
2023-11-19T12:55:01.768Z,4.3
2023-11-19T12:56:07.880Z,4.4
2023-11-19T12:57:01.041Z,4.4
2023-11-19T12:58:00.685Z,4.4
2023-11-19T12:59:10.269Z,4.5
2023-11-19T13:00:00.523Z,4.5
2023-11-19T13:01:01.626Z,4.5
2023-11-19T13:02:00.499Z,4.5
2023-11-19T13:03:00.489Z,4.6
2023-11-19T13:04:00.435Z,4.6
2023-11-19T13:05:21.073Z,4.7
2023-11-19T13:06:06.418Z,4.7
2023-11-19T13:08:01.980Z,4.7
2023-11-19T13:09:00.420Z,4.7
2023-11-19T13:10:02.666Z,4.7
2023-11-19T13:11:00.408Z,4.7
2023-11-19T13:12:13.244Z,4.7
2023-11-19T13:13:01.424Z,4.8
2023-11-19T13:14:04.006Z,4.8
2023-11-19T13:15:00.413Z,4.8
2023-11-19T13:16:03.019Z,4.8
2023-11-19T13:17:00.442Z,4.7
2023-11-19T13:18:01.682Z,4.7
2023-11-19T13:19:00.491Z,4.7
2023-11-19T13:20:00.454Z,4.7
2023-11-19T13:21:00.693Z,4.7
2023-11-19T13:22:00.420Z,4.7
2023-11-19T13:23:02.541Z,4.7
2023-11-19T13:24:00.598Z,4.8
2023-11-19T13:25:00.431Z,4.7
2023-11-19T13:26:00.452Z,4.7
2023-11-19T13:27:00.403Z,4.7
2023-11-19T13:28:00.599Z,4.7
2023-11-19T13:29:00.710Z,4.7
2023-11-19T13:30:04.241Z,4.7
2023-11-19T13:31:00.429Z,4.8
2023-11-19T13:32:00.441Z,4.7
2023-11-19T13:33:00.486Z,4.7
2023-11-19T13:34:00.494Z,4.8
2023-11-19T13:35:00.392Z,4.8
2023-11-19T13:36:00.413Z,4.8
2023-11-19T13:37:00.435Z,4.8
2023-11-19T13:38:00.423Z,4.9
2023-11-19T13:39:01.146Z,4.9
2023-11-19T13:40:01.001Z,4.9
2023-11-19T13:41:00.536Z,4.9
2023-11-19T13:43:00.518Z,4.9
2023-11-19T13:44:00.398Z,5.0
2023-11-19T13:45:00.447Z,5.0
2023-11-19T13:46:00.593Z,5.0
2023-11-19T13:47:00.421Z,5.0
2023-11-19T13:48:00.429Z,5.0
2023-11-19T13:49:00.439Z,5.1
2023-11-19T13:50:00.400Z,5.1
2023-11-19T13:51:00.403Z,5.1
2023-11-19T13:52:00.481Z,5.1
2023-11-19T13:53:00.604Z,5.2
2023-11-19T13:54:00.435Z,5.2
2023-11-19T13:55:00.491Z,5.2
2023-11-19T13:56:00.460Z,5.2